Time;durP1;ratioP1;P1;durP2;ratioP2;P2;SDS_P1;SDS_P2;PMS_P1;PMS_P2;Temp;Humidity;BMP_temperature;BMP_pressure;BME280_temperature;BME280_humidity;BME280_pressure;Samples;Min_cycle;Max_cycle;Signal;HPM_P1;HPM_P2
2021/07/01 00:01:14;;;;;;;0.60;0.60;;;25.30;50.20;;;;;;5013443;28;20219;-48
2021/07/01 00:03:40;;;;;;;0.70;0.70;;;25.30;50.20;;;;;;5013537;28;20226;-44
2021/07/01 00:06:07;;;;;;;0.80;0.80;;;25.30;50.20;;;;;;5013067;28;20273;-46
2021/07/01 00:08:33;;;;;;;0.77;0.77;;;25.30;50.40;;;;;;5012644;28;20378;-48
2021/07/01 00:10:59;;;;;;;0.80;0.80;;;25.30;50.30;;;;;;4995826;28;20315;-50
2021/07/01 00:13:26;;;;;;;0.70;0.70;;;25.20;50.30;;;;;;5013872;28;20306;-49
2021/07/01 00:15:52;;;;;;;0.77;0.77;;;25.20;50.40;;;;;;5012855;28;20199;-46
2021/07/01 00:18:19;;;;;;;0.85;0.85;;;25.30;50.50;;;;;;5012940;28;20210;-49
2021/07/01 00:20:45;;;;;;;0.88;0.88;;;25.30;50.60;;;;;;4996129;28;20339;-44
2021/07/01 00:23:12;;;;;;;0.70;0.70;;;25.30;50.60;;;;;;4996710;28;20222;-45
2021/07/01 00:25:39;;;;;;;0.60;0.60;;;25.20;51.00;;;;;;5010168;28;20682;-47
2021/07/01 00:28:05;;;;;;;0.80;0.80;;;25.30;51.00;;;;;;5012771;28;20715;-46
2021/07/01 00:30:31;;;;;;;0.77;0.77;;;25.20;51.00;;;;;;4997150;28;20607;-45
2021/07/01 00:32:58;;;;;;;0.80;0.80;;;25.30;51.00;;;;;;5005667;28;20570;-45
2021/07/01 00:35:24;;;;;;;1.27;0.85;;;25.30;51.00;;;;;;5012498;28;20283;-46
2021/07/01 00:37:51;;;;;;;1.35;0.70;;;25.20;51.20;;;;;;5012880;28;20207;-47
2021/07/01 00:40:17;;;;;;;0.60;0.60;;;25.20;51.10;;;;;;5012567;28;20235;-48
2021/07/01 00:42:44;;;;;;;1.10;0.75;;;25.30;51.10;;;;;;5012967;28;20298;-49
2021/07/01 00:45:11;;;;;;;0.73;0.73;;;25.20;51.00;;;;;;5009187;28;20365;-50
2021/07/01 00:47:37;;;;;;;0.80;0.80;;;25.30;51.00;;;;;;4999051;28;20204;-48
2021/07/01 00:50:04;;;;;;;0.80;0.80;;;25.30;51.10;;;;;;5006427;28;20645;-45
2021/07/01 00:52:30;;;;;;;0.80;0.80;;;25.20;51.00;;;;;;5012616;28;20287;-47
2021/07/01 00:54:57;;;;;;;0.98;0.60;;;25.20;51.00;;;;;;5012649;28;20207;-43
2021/07/01 00:57:23;;;;;;;0.70;0.70;;;25.20;51.10;;;;;;5012413;28;20225;-44
2021/07/01 00:59:50;;;;;;;0.52;0.52;;;25.30;51.10;;;;;;5012060;28;20223;-45
2021/07/01 01:02:16;;;;;;;0.70;0.70;;;25.20;51.00;;;;;;5010958;28;20207;-45
2021/07/01 01:04:42;;;;;;;0.75;0.75;;;25.30;51.10;;;;;;5002636;28;20208;-47
2021/07/01 01:07:09;;;;;;;0.70;0.70;;;25.20;51.00;;;;;;4992755;28;20199;-49
2021/07/01 01:09:35;;;;;;;0.70;0.70;;;25.20;51.00;;;;;;5007420;28;20230;-47
2021/07/01 01:12:02;;;;;;;0.70;0.70;;;25.20;50.90;;;;;;5012352;28;20207;-50
2021/07/01 01:14:28;;;;;;;0.93;0.90;;;25.20;50.90;;;;;;5005936;28;20204;-47
2021/07/01 01:16:55;;;;;;;0.73;0.73;;;25.20;50.90;;;;;;4992261;28;20188;-49
2021/07/01 01:19:21;;;;;;;0.75;0.75;;;25.20;50.90;;;;;;5001099;28;20704;-46
2021/07/01 01:21:48;;;;;;;1.35;0.80;;;25.20;51.00;;;;;;5012087;28;20708;-51
2021/07/01 01:24:14;;;;;;;0.75;0.75;;;25.20;51.00;;;;;;5004242;28;20223;-51
2021/07/01 01:26:40;;;;;;;0.68;0.60;;;25.20;51.10;;;;;;5004577;28;20204;-48
2021/07/01 01:29:07;;;;;;;0.70;0.70;;;25.20;51.10;;;;;;5012066;28;20244;-49
2021/07/01 01:31:37;;;;;;;0.75;0.75;;;25.20;51.10;;;;;;5007732;28;20222;-44
2021/07/01 01:34:03;;;;;;;0.70;0.70;;;25.20;51.10;;;;;;4992574;28;20200;-44
2021/07/01 01:36:30;;;;;;;0.63;0.63;;;25.20;51.10;;;;;;4996941;28;20196;-49
2021/07/01 01:38:56;;;;;;;0.70;0.70;;;25.20;51.10;;;;;;4992493;28;20306;-47
2021/07/01 01:41:22;;;;;;;1.13;0.70;;;25.20;51.20;;;;;;4992559;28;20219;-47
2021/07/01 01:43:49;;;;;;;0.80;0.80;;;25.20;51.20;;;;;;5008548;28;20215;-48
2021/07/01 01:46:15;;;;;;;0.75;0.75;;;25.20;51.30;;;;;;5010745;28;20199;-48
2021/07/01 01:48:42;;;;;;;0.60;0.60;;;25.20;51.30;;;;;;5011089;28;20274;-48
2021/07/01 01:51:08;;;;;;;1.00;0.90;;;25.20;51.30;;;;;;5011378;28;20227;-50
2021/07/01 01:53:35;;;;;;;0.60;0.60;;;25.20;51.30;;;;;;5011318;28;20205;-47
2021/07/01 01:56:01;;;;;;;0.70;0.70;;;25.20;51.30;;;;;;5011003;28;20294;-48
2021/07/01 01:58:28;;;;;;;0.80;0.80;;;25.20;51.30;;;;;;4998337;28;20217;-48
2021/07/01 02:00:54;;;;;;;0.82;0.80;;;25.20;51.20;;;;;;5011034;28;20237;-51
2021/07/01 02:03:21;;;;;;;1.17;0.70;;;25.20;51.20;;;;;;5001059;28;20207;-47
2021/07/01 02:05:47;;;;;;;0.80;0.80;;;25.20;51.20;;;;;;4991894;28;20273;-51
2021/07/01 02:08:13;;;;;;;0.70;0.70;;;25.20;51.20;;;;;;4997845;28;20302;-48
2021/07/01 02:10:40;;;;;;;0.70;0.70;;;25.20;51.20;;;;;;5011126;28;20241;-50
2021/07/01 02:13:10;;;;;;;0.65;0.60;;;25.20;51.20;;;;;;5009422;28;20295;-50
2021/07/01 02:15:37;;;;;;;0.60;0.57;;;25.20;51.20;;;;;;4998132;28;20242;-47
2021/07/01 02:18:03;;;;;;;0.95;0.95;;;25.20;51.20;;;;;;4994964;28;20200;-49
2021/07/01 02:20:29;;;;;;;0.75;0.75;;;25.20;51.20;;;;;;4991737;28;20235;-48
2021/07/01 02:22:56;;;;;;;0.70;0.70;;;25.20;51.10;;;;;;5005131;28;20199;-45
2021/07/01 02:25:22;;;;;;;0.70;0.70;;;25.20;51.20;;;;;;4991792;28;20302;-46
2021/07/01 02:27:49;;;;;;;0.73;0.73;;;25.20;51.20;;;;;;5009140;28;20350;-47
2021/07/01 02:30:15;;;;;;;0.70;0.70;;;25.20;51.20;;;;;;5011150;28;20675;-49
2021/07/01 02:32:42;;;;;;;0.70;0.70;;;25.20;51.20;;;;;;5009977;28;20311;-47
2021/07/01 02:35:08;;;;;;;0.70;0.70;;;25.20;51.20;;;;;;5010449;28;20203;-45
2021/07/01 02:37:35;;;;;;;0.60;0.60;;;25.20;51.20;;;;;;5009992;28;20199;-46
2021/07/01 02:40:03;;;;;;;0.70;0.70;;;25.20;51.20;;;;;;5010589;28;20242;-48
2021/07/01 02:42:29;;;;;;;1.10;0.80;;;25.20;51.30;;;;;;5009501;28;20265;-46
2021/07/01 02:44:56;;;;;;;0.70;0.70;;;25.20;51.20;;;;;;4998970;28;20206;-46
2021/07/01 02:47:22;;;;;;;0.80;0.80;;;25.20;51.30;;;;;;4992008;28;20302;-45
2021/07/01 02:49:49;;;;;;;0.70;0.70;;;25.20;51.20;;;;;;4991947;28;20323;-48
2021/07/01 02:52:15;;;;;;;0.70;0.70;;;25.20;51.30;;;;;;5009754;28;20211;-42
2021/07/01 02:54:42;;;;;;;1.58;0.80;;;25.20;51.30;;;;;;5010551;28;20203;-46
2021/07/01 02:57:08;;;;;;;0.63;0.60;;;25.20;51.30;;;;;;5009690;28;20202;-43
2021/07/01 02:59:34;;;;;;;0.65;0.65;;;25.20;51.30;;;;;;5010969;28;20223;-45
2021/07/01 03:02:01;;;;;;;0.70;0.70;;;25.20;51.20;;;;;;5010713;28;20285;-45
2021/07/01 03:04:28;;;;;;;0.77;0.77;;;25.20;51.30;;;;;;5010424;28;20203;-45
2021/07/01 03:06:54;;;;;;;0.95;0.80;;;25.20;51.30;;;;;;5009258;28;20195;-43
2021/07/01 03:09:21;;;;;;;0.70;0.70;;;25.20;51.30;;;;;;5010361;28;20322;-48
2021/07/01 03:11:47;;;;;;;0.60;0.60;;;25.20;51.30;;;;;;5010060;28;20223;-47
2021/07/01 03:14:13;;;;;;;0.80;0.80;;;25.20;51.30;;;;;;4999366;28;20206;-49
2021/07/01 03:16:40;;;;;;;0.77;0.77;;;25.20;51.30;;;;;;5007198;28;20195;-47
2021/07/01 03:19:06;;;;;;;0.85;0.70;;;25.20;51.30;;;;;;4997031;28;20315;-50
2021/07/01 03:21:33;;;;;;;0.60;0.60;;;25.20;51.30;;;;;;4990713;28;20407;-49
2021/07/01 03:23:59;;;;;;;0.70;0.70;;;25.20;51.20;;;;;;4999513;28;20220;-45
2021/07/01 03:26:26;;;;;;;0.73;0.73;;;25.20;51.20;;;;;;5009653;28;20298;-46
2021/07/01 03:28:52;;;;;;;0.70;0.70;;;25.20;51.30;;;;;;5009899;28;20209;-50
2021/07/01 03:31:19;;;;;;;0.70;0.70;;;25.20;51.30;;;;;;5009986;28;20206;-47
2021/07/01 03:33:45;;;;;;;1.10;0.80;;;25.20;51.30;;;;;;4994319;28;20334;-43
2021/07/01 03:36:11;;;;;;;1.00;0.80;;;25.20;51.30;;;;;;5009881;28;20209;-47
2021/07/01 03:38:38;;;;;;;0.60;0.60;;;25.20;51.30;;;;;;4998893;28;20203;-48
2021/07/01 03:41:04;;;;;;;0.60;0.60;;;25.20;51.30;;;;;;5010042;28;20313;-49
2021/07/01 03:43:31;;;;;;;0.80;0.80;;;25.20;51.30;;;;;;5005106;28;20215;-46
2021/07/01 03:45:58;;;;;;;0.60;0.60;;;25.20;51.30;;;;;;5009184;28;20203;-46
2021/07/01 03:48:24;;;;;;;0.98;0.70;;;25.20;51.30;;;;;;5008254;28;20205;-44
2021/07/01 03:50:51;;;;;;;0.60;0.60;;;25.20;51.40;;;;;;5010011;28;20317;-48
2021/07/01 03:53:17;;;;;;;1.55;1.00;;;25.20;51.40;;;;;;5009424;28;20203;-47
2021/07/01 03:55:43;;;;;;;0.70;0.70;;;25.20;51.30;;;;;;5010293;28;20637;-48
2021/07/01 03:58:10;;;;;;;1.52;0.73;;;25.20;51.40;;;;;;5008714;28;20555;-45
2021/07/01 04:00:37;;;;;;;0.70;0.70;;;25.20;51.40;;;;;;5009910;28;20735;-46
2021/07/01 04:03:03;;;;;;;0.80;0.80;;;25.20;51.40;;;;;;4995480;28;20254;-49
2021/07/01 04:05:30;;;;;;;0.60;0.60;;;25.20;51.40;;;;;;5000519;28;20246;-49
2021/07/01 04:07:56;;;;;;;1.30;0.82;;;25.20;51.40;;;;;;5009491;28;20217;-48
2021/07/01 04:10:23;;;;;;;0.90;0.82;;;25.20;51.40;;;;;;5000378;28;20241;-45
2021/07/01 04:12:49;;;;;;;0.60;0.60;;;25.20;51.40;;;;;;5009907;28;20294;-45
2021/07/01 04:15:16;;;;;;;0.70;0.70;;;25.20;51.40;;;;;;5009435;28;20711;-49
2021/07/01 04:17:42;;;;;;;0.80;0.80;;;25.20;51.30;;;;;;5009111;28;20664;-47
2021/07/01 04:20:08;;;;;;;0.80;0.80;;;25.20;51.30;;;;;;5005413;28;24578;-43
2021/07/01 04:22:35;;;;;;;0.82;0.75;;;25.20;51.30;;;;;;4999350;28;20200;-43
2021/07/01 04:25:01;;;;;;;0.75;0.75;;;25.20;51.40;;;;;;5009786;28;20210;-44
2021/07/01 04:27:28;;;;;;;0.70;0.70;;;25.20;51.40;;;;;;5002585;28;20205;-49
2021/07/01 04:29:54;;;;;;;0.70;0.70;;;25.20;51.40;;;;;;5012816;28;20318;-43
2021/07/01 04:32:21;;;;;;;0.80;0.75;;;25.20;51.40;;;;;;5008932;28;20203;-46
2021/07/01 04:34:48;;;;;;;0.70;0.70;;;25.20;51.30;;;;;;5012768;28;20198;-49
2021/07/01 04:37:14;;;;;;;0.70;0.70;;;25.20;51.30;;;;;;5012358;28;20218;-48
2021/07/01 04:39:41;;;;;;;0.70;0.70;;;25.20;51.30;;;;;;5012374;28;20231;-46
2021/07/01 04:42:07;;;;;;;0.68;0.68;;;25.20;51.40;;;;;;5012984;28;20202;-45
2021/07/01 04:44:34;;;;;;;0.70;0.70;;;25.20;51.40;;;;;;5012426;28;20209;-49
2021/07/01 04:47:01;;;;;;;0.70;0.70;;;25.20;51.40;;;;;;5011160;28;20203;-49
2021/07/01 04:49:27;;;;;;;0.70;0.70;;;25.20;51.40;;;;;;5011907;28;20253;-43
2021/07/01 04:51:54;;;;;;;0.70;0.70;;;25.20;51.30;;;;;;5012352;28;20281;-44
2021/07/01 04:54:20;;;;;;;0.73;0.73;;;25.20;51.30;;;;;;5012918;28;20215;-50
2021/07/01 04:56:47;;;;;;;1.95;0.70;;;25.20;51.30;;;;;;5008096;28;20199;-49
2021/07/01 04:59:13;;;;;;;0.60;0.60;;;25.20;51.30;;;;;;5003536;28;20215;-47
2021/07/01 05:01:40;;;;;;;0.50;0.50;;;25.10;51.20;;;;;;4998613;28;20295;-53
2021/07/01 05:04:06;;;;;;;0.75;0.75;;;25.20;51.90;;;;;;4993404;28;20219;-50
2021/07/01 05:06:33;;;;;;;0.80;0.80;;;25.20;51.30;;;;;;5004200;28;20329;-49
2021/07/01 05:08:59;;;;;;;0.70;0.70;;;25.20;51.30;;;;;;5012549;28;20298;-45
2021/07/01 05:11:26;;;;;;;0.60;0.60;;;25.20;51.30;;;;;;5011627;28;20325;-49
2021/07/01 05:13:52;;;;;;;0.70;0.70;;;25.20;51.30;;;;;;5011981;28;20286;-47
2021/07/01 05:16:19;;;;;;;0.82;0.82;;;25.20;51.30;;;;;;5010570;28;20220;-50
2021/07/01 05:18:45;;;;;;;0.80;0.80;;;25.20;51.30;;;;;;5010885;28;20221;-46
2021/07/01 05:21:12;;;;;;;2.58;0.80;;;25.20;51.20;;;;;;4998683;28;20639;-46
2021/07/01 05:23:38;;;;;;;2.33;0.90;;;25.20;51.80;;;;;;4996385;28;20298;-46
2021/07/01 05:26:04;;;;;;;1.00;0.80;;;25.20;51.70;;;;;;5000135;28;20690;-43
2021/07/01 05:28:31;;;;;;;3.35;1.05;;;25.20;51.60;;;;;;5004266;28;20604;-41
2021/07/01 05:30:57;;;;;;;0.98;0.85;;;25.20;51.60;;;;;;5010865;28;20546;-44
2021/07/01 05:33:24;;;;;;;1.00;0.80;;;25.20;51.60;;;;;;5011003;28;20203;-46
2021/07/01 05:35:50;;;;;;;1.02;0.90;;;25.20;51.60;;;;;;5011142;28;20592;-43
2021/07/01 05:38:17;;;;;;;1.70;1.05;;;25.20;51.80;;;;;;5010828;28;20287;-43
2021/07/01 05:40:43;;;;;;;9.30;1.60;;;25.20;53.00;;;;;;5007811;28;20210;-46
2021/07/01 05:43:10;;;;;;;6.32;1.50;;;25.20;53.10;;;;;;5011274;28;20289;-40
2021/07/01 05:45:36;;;;;;;3.40;1.08;;;25.30;53.40;;;;;;5002524;28;20231;-43
2021/07/01 05:48:03;;;;;;;2.70;1.10;;;25.20;54.40;;;;;;4992466;28;20207;-40
2021/07/01 05:50:30;;;;;;;5.70;1.45;;;25.20;54.70;;;;;;5010468;28;20585;-39
2021/07/01 05:53:00;;;;;;;6.78;1.48;;;25.30;55.40;;;;;;5011081;28;20582;-42
2021/07/01 05:55:26;;;;;;;6.15;1.33;;;25.20;55.80;;;;;;5010821;28;20616;-41
2021/07/01 05:57:53;;;;;;;5.90;1.80;;;25.20;56.60;;;;;;5010415;28;20309;-43
2021/07/01 06:00:19;;;;;;;6.57;2.70;;;25.30;57.30;;;;;;5008143;28;20350;-44
2021/07/01 06:02:46;;;;;;;10.68;2.17;;;25.20;56.30;;;;;;5008230;28;20294;-42
2021/07/01 06:05:12;;;;;;;3.85;1.60;;;25.00;54.90;;;;;;5010509;28;20277;-45
2021/07/01 06:07:39;;;;;;;5.30;1.70;;;24.90;54.50;;;;;;5008992;28;20221;-42
2021/07/01 06:10:06;;;;;;;4.18;1.73;;;24.90;54.30;;;;;;5008555;28;20281;-41
2021/07/01 06:12:32;;;;;;;6.10;1.80;;;24.80;53.00;;;;;;5006773;28;20203;-44
2021/07/01 06:14:59;;;;;;;3.47;1.48;;;24.80;53.00;;;;;;5010025;28;20195;-47
2021/07/01 06:17:25;;;;;;;1.95;1.30;;;24.70;52.40;;;;;;5010049;28;20294;-44
2021/07/01 06:19:52;;;;;;;2.78;1.42;;;24.70;52.60;;;;;;5001104;28;20227;-49
2021/07/01 06:22:21;;;;;;;2.17;1.30;;;24.70;52.30;;;;;;4996522;28;20199;-44
2021/07/01 06:24:49;;;;;;;1.77;1.30;;;24.60;52.00;;;;;;5010200;28;20210;-42
2021/07/01 06:27:21;;;;;;;2.78;1.20;;;24.70;52.30;;;;;;5000900;28;20222;-49
2021/07/01 06:29:47;;;;;;;2.72;1.38;;;24.60;52.00;;;;;;5005884;28;20713;-45
2021/07/01 06:32:14;;;;;;;4.10;1.60;;;24.60;52.20;;;;;;5007685;28;20200;-43
2021/07/01 06:34:40;;;;;;;1.67;1.40;;;24.60;52.90;;;;;;5007222;28;20234;-45
2021/07/01 06:37:07;;;;;;;2.55;1.70;;;24.70;53.00;;;;;;5009591;28;20633;-44
2021/07/01 06:39:33;;;;;;;1.63;1.50;;;24.70;53.30;;;;;;5008636;28;20262;-45
2021/07/01 06:42:00;;;;;;;3.42;1.23;;;24.80;53.20;;;;;;5008841;28;20629;-42
2021/07/01 06:44:26;;;;;;;4.45;1.42;;;24.80;53.40;;;;;;5002924;28;20219;-47
2021/07/01 06:46:53;;;;;;;2.17;1.27;;;24.80;53.50;;;;;;5007269;28;20307;-44
2021/07/01 06:49:19;;;;;;;3.38;1.88;;;24.80;54.50;;;;;;5005281;28;20240;-58
2021/07/01 06:51:46;;;;;;;1.30;1.20;;;24.80;53.90;;;;;;5005653;28;20229;-48
2021/07/01 06:54:15;;;;;;;1.20;1.10;;;24.90;54.00;;;;;;5007238;28;20213;-44
2021/07/01 06:56:41;;;;;;;1.60;1.20;;;24.90;54.30;;;;;;5009875;28;20203;-48
2021/07/01 06:59:08;;;;;;;1.75;1.42;;;24.90;53.30;;;;;;5006700;28;20223;-46
2021/07/01 07:01:34;;;;;;;3.33;1.50;;;24.80;53.00;;;;;;5005589;28;20776;-50
2021/07/01 07:04:01;;;;;;;1.77;1.40;;;24.90;53.20;;;;;;5004738;28;20238;-44
2021/07/01 07:06:27;;;;;;;3.22;1.52;;;24.90;53.20;;;;;;5002818;28;20295;-44
2021/07/01 07:08:54;;;;;;;2.35;1.20;;;24.90;53.10;;;;;;5002612;28;20309;-45
2021/07/01 07:11:21;;;;;;;1.50;1.40;;;24.90;53.10;;;;;;4999568;28;20233;-50
2021/07/01 07:13:47;;;;;;;2.20;1.50;;;24.90;53.20;;;;;;5000162;28;22263;-44
2021/07/01 07:16:14;;;;;;;1.90;1.67;;;24.90;53.10;;;;;;5006809;28;20287;-46
2021/07/01 07:18:40;;;;;;;1.92;1.45;;;24.90;52.90;;;;;;5005895;28;20314;-44
2021/07/01 07:21:07;;;;;;;1.35;1.23;;;24.90;52.90;;;;;;5005202;28;20289;-43
2021/07/01 07:23:33;;;;;;;5.97;2.60;;;25.00;41.80;;;;;;5008455;28;20203;-44
2021/07/01 07:26:00;;;;;;;1.63;1.10;;;25.00;41.70;;;;;;5007548;28;20199;-42
2021/07/01 07:28:26;;;;;;;2.53;1.10;;;25.00;41.80;;;;;;4990415;28;20224;-42
2021/07/01 07:30:53;;;;;;;3.05;1.50;;;24.90;40.80;;;;;;4990215;28;20223;-40
2021/07/01 07:33:19;;;;;;;8.02;2.50;;;24.90;40.80;;;;;;5004035;28;20290;-45
2021/07/01 07:35:46;;;;;;;2.95;1.60;;;24.90;41.00;;;;;;5001014;28;20273;-43
2021/07/01 07:38:12;;;;;;;2.35;1.30;;;25.00;40.80;;;;;;5006722;28;20226;-46
2021/07/01 07:40:39;;;;;;;1.60;1.50;;;25.00;40.70;;;;;;5007752;28;20742;-45
2021/07/01 07:43:05;;;;;;;1.90;1.40;;;24.80;40.70;;;;;;5004597;28;20655;-42
2021/07/01 07:45:32;;;;;;;2.42;1.30;;;24.80;40.90;;;;;;5000472;28;20229;-42
2021/07/01 07:47:58;;;;;;;2.47;1.20;;;24.90;41.00;;;;;;5002962;28;20223;-42
2021/07/01 07:50:24;;;;;;;1.20;1.15;;;24.90;41.30;;;;;;5001035;28;20231;-44
2021/07/01 07:52:51;;;;;;;3.25;1.20;;;24.90;41.30;;;;;;5003087;28;20411;-42
2021/07/01 07:55:17;;;;;;;3.65;1.40;;;24.90;40.90;;;;;;5004384;28;20211;-44
2021/07/01 07:57:44;;;;;;;3.10;1.10;;;24.90;41.40;;;;;;5008001;28;20199;-45
2021/07/01 08:00:10;;;;;;;2.65;1.40;;;24.80;41.20;;;;;;5004267;28;20200;-43
2021/07/01 08:02:37;;;;;;;2.75;1.20;;;24.90;40.90;;;;;;5006545;28;20209;-45
2021/07/01 08:05:03;;;;;;;1.77;1.10;;;24.90;41.10;;;;;;5010123;28;20206;-42
2021/07/01 08:07:29;;;;;;;10.55;1.35;;;24.90;41.50;;;;;;5006638;28;20199;-42
2021/07/01 08:09:56;;;;;;;1.95;1.10;;;25.00;41.20;;;;;;5008453;28;20736;-42
2021/07/01 08:12:22;;;;;;;2.55;1.23;;;25.00;40.70;;;;;;5010327;28;20306;-42
2021/07/01 08:14:49;;;;;;;1.30;1.10;;;24.40;38.60;;;;;;5009910;28;20261;-44
2021/07/01 08:17:15;;;;;;;2.40;1.30;;;24.40;40.60;;;;;;5009192;28;20206;-42
2021/07/01 08:19:42;;;;;;;1.55;1.05;;;24.50;40.50;;;;;;5011844;28;20219;-43
2021/07/01 08:22:09;;;;;;;2.15;0.88;;;24.70;40.40;;;;;;5008647;28;20290;-44
2021/07/01 08:24:35;;;;;;;1.60;1.02;;;24.70;40.30;;;;;;5007685;28;20290;-42
2021/07/01 08:27:02;;;;;;;1.30;0.98;;;24.80;40.40;;;;;;5007197;28;20298;-42
2021/07/01 08:29:28;;;;;;;1.20;1.08;;;24.90;40.70;;;;;;5008216;28;20246;-45
2021/07/01 08:31:55;;;;;;;1.58;1.27;;;24.90;40.80;;;;;;5007078;28;20258;-40
2021/07/01 08:34:21;;;;;;;3.88;1.20;;;24.90;40.20;;;;;;5004573;28;20195;-42
2021/07/01 08:36:48;;;;;;;1.63;1.20;;;24.90;40.10;;;;;;5008899;28;20200;-45
2021/07/01 08:39:14;;;;;;;2.05;1.10;;;24.70;40.00;;;;;;5007945;28;20723;-43
2021/07/01 08:41:41;;;;;;;1.83;1.05;;;24.80;40.00;;;;;;5012070;28;20207;-44
2021/07/01 08:44:08;;;;;;;2.70;1.10;;;24.90;39.80;;;;;;5008784;28;20214;-44
2021/07/01 08:46:35;;;;;;;1.45;1.20;;;24.90;39.70;;;;;;5002796;28;20199;-43
2021/07/01 08:49:01;;;;;;;1.00;1.00;;;24.90;39.70;;;;;;5000476;28;20305;-46
2021/07/01 08:51:27;;;;;;;2.90;1.30;;;24.90;39.80;;;;;;5005102;28;20313;-45
2021/07/01 08:53:54;;;;;;;1.23;0.98;;;24.90;39.50;;;;;;5010463;28;20738;-46
2021/07/01 08:56:20;;;;;;;1.33;1.15;;;24.90;39.50;;;;;;5012364;28;20603;-44
2021/07/01 08:58:47;;;;;;;1.30;1.20;;;24.90;39.40;;;;;;5009595;28;20865;-42
2021/07/01 09:01:13;;;;;;;2.15;1.27;;;24.90;39.30;;;;;;5001918;28;20203;-41
2021/07/01 09:03:41;;;;;;;1.17;1.10;;;24.90;39.40;;;;;;5008821;28;20207;-42
2021/07/01 09:06:07;;;;;;;1.25;1.00;;;24.90;39.30;;;;;;5004913;28;20251;-50
2021/07/01 09:08:34;;;;;;;3.35;1.00;;;24.90;39.10;;;;;;5004992;28;20233;-44
2021/07/01 09:11:00;;;;;;;1.10;1.00;;;24.90;39.10;;;;;;5010904;28;20227;-47
2021/07/01 09:13:27;;;;;;;1.17;1.10;;;24.90;39.10;;;;;;5012580;28;20206;-42
2021/07/01 09:15:53;;;;;;;1.20;1.10;;;25.00;39.10;;;;;;5011634;28;20209;-45
2021/07/01 09:18:19;;;;;;;1.77;1.23;;;25.00;39.10;;;;;;5009304;28;20219;-42
2021/07/01 09:20:46;;;;;;;1.23;1.13;;;25.00;39.10;;;;;;5007876;28;20247;-46
2021/07/01 09:23:13;;;;;;;1.23;1.10;;;25.00;39.20;;;;;;5008934;28;20203;-43
2021/07/01 09:25:39;;;;;;;1.30;0.93;;;25.00;39.30;;;;;;5008343;28;20214;-45
2021/07/01 09:28:06;;;;;;;1.83;1.10;;;25.00;39.30;;;;;;5009313;28;20306;-47
2021/07/01 09:30:32;;;;;;;1.95;1.20;;;25.00;39.40;;;;;;5009621;28;20302;-41
2021/07/01 09:32:59;;;;;;;2.97;1.50;;;25.00;39.40;;;;;;5012011;28;20227;-44
2021/07/01 09:35:25;;;;;;;1.20;1.10;;;25.00;39.40;;;;;;5008471;28;20214;-44
2021/07/01 09:37:51;;;;;;;1.90;1.30;;;25.00;39.40;;;;;;5008161;28;20229;-43
2021/07/01 09:40:19;;;;;;;1.60;1.08;;;25.00;39.40;;;;;;5011095;28;20207;-43
2021/07/01 09:42:45;;;;;;;1.25;1.15;;;25.00;39.40;;;;;;5005158;28;20298;-43
2021/07/01 09:45:11;;;;;;;1.25;1.15;;;25.00;39.40;;;;;;5010275;28;20204;-44
2021/07/01 09:47:39;;;;;;;1.17;1.17;;;25.00;39.40;;;;;;5003408;28;20707;-42
2021/07/01 09:50:05;;;;;;;1.40;1.30;;;25.00;39.40;;;;;;5004672;28;20203;-42
2021/07/01 09:52:32;;;;;;;2.03;1.20;;;25.00;39.50;;;;;;5016398;28;20226;-44
2021/07/01 09:54:58;;;;;;;1.13;1.02;;;25.00;39.50;;;;;;5008095;28;20207;-44
2021/07/01 09:57:26;;;;;;;1.60;1.20;;;25.10;39.60;;;;;;5007643;28;20227;-44
2021/07/01 09:59:52;;;;;;;1.25;1.15;;;25.10;39.60;;;;;;5009166;28;20206;-47
2021/07/01 10:02:19;;;;;;;1.92;1.50;;;25.10;39.60;;;;;;5000326;28;20208;-47
2021/07/01 10:04:48;;;;;;;3.42;1.25;;;25.10;39.60;;;;;;5007164;28;20290;-46
2021/07/01 10:07:15;;;;;;;2.28;1.40;;;25.10;39.60;;;;;;5009713;28;20309;-45
2021/07/01 10:09:41;;;;;;;1.17;1.08;;;25.10;39.60;;;;;;5011268;28;20199;-41
2021/07/01 10:12:07;;;;;;;2.15;1.23;;;25.10;39.60;;;;;;5008571;28;20227;-44
2021/07/01 10:14:34;;;;;;;1.30;1.10;;;25.10;39.60;;;;;;4999995;28;20207;-46
2021/07/01 10:17:00;;;;;;;2.38;1.40;;;25.10;39.60;;;;;;5008853;28;20245;-44
2021/07/01 10:19:27;;;;;;;1.52;1.10;;;25.20;40.20;;;;;;5005355;28;20203;-44
2021/07/01 10:21:53;;;;;;;2.67;1.23;;;25.20;39.40;;;;;;5008016;28;20290;-46
2021/07/01 10:24:20;;;;;;;1.30;1.20;;;25.20;39.20;;;;;;5002646;28;20291;-47
2021/07/01 10:26:46;;;;;;;1.60;1.02;;;25.20;39.10;;;;;;5005678;28;20737;-42
2021/07/01 10:29:13;;;;;;;1.98;1.20;;;25.20;39.10;;;;;;5005652;28;20211;-41
2021/07/01 10:31:39;;;;;;;2.08;1.25;;;25.20;39.10;;;;;;5003416;28;20266;-45
2021/07/01 10:34:05;;;;;;;1.20;1.10;;;25.20;39.10;;;;;;5008357;28;20205;-43
2021/07/01 10:36:32;;;;;;;1.45;1.30;;;25.20;39.10;;;;;;5007026;28;20241;-40
2021/07/01 10:38:58;;;;;;;2.15;1.23;;;25.20;39.10;;;;;;5007803;28;20213;-44
2021/07/01 10:41:25;;;;;;;1.73;1.13;;;25.10;39.30;;;;;;5007580;28;20679;-43
2021/07/01 10:43:51;;;;;;;1.42;1.13;;;25.20;39.50;;;;;;5006713;28;20631;-43
2021/07/01 10:46:18;;;;;;;2.50;1.58;;;25.20;39.70;;;;;;4996630;28;20290;-41
2021/07/01 10:48:45;;;;;;;1.30;1.20;;;25.10;39.60;;;;;;5006400;28;20755;-39
2021/07/01 10:51:11;;;;;;;1.33;1.00;;;25.20;39.70;;;;;;5008210;28;20850;-42
2021/07/01 10:53:38;;;;;;;2.42;1.27;;;25.20;39.60;;;;;;5010249;28;20687;-41
2021/07/01 10:56:04;;;;;;;2.45;1.33;;;25.20;39.60;;;;;;5007990;28;20243;-43
2021/07/01 10:58:31;;;;;;;1.33;1.23;;;25.20;39.70;;;;;;5010262;28;20209;-42
2021/07/01 11:00:57;;;;;;;1.40;1.27;;;25.20;39.70;;;;;;5009850;28;20438;-44
2021/07/01 11:03:25;;;;;;;1.85;1.10;;;25.20;39.70;;;;;;5009050;28;20238;-41
2021/07/01 11:05:52;;;;;;;2.45;1.23;;;25.20;39.60;;;;;;5007703;28;20206;-45
2021/07/01 11:08:18;;;;;;;2.08;1.40;;;25.20;39.70;;;;;;5005693;28;20223;-47
2021/07/01 11:10:45;;;;;;;1.42;1.33;;;25.20;39.60;;;;;;5005381;28;20203;-45
2021/07/01 11:13:11;;;;;;;1.50;1.40;;;25.20;39.60;;;;;;5009587;28;20196;-44
2021/07/01 11:15:37;;;;;;;2.05;1.20;;;25.20;39.60;;;;;;5006882;28;20209;-46
2021/07/01 11:18:04;;;;;;;1.60;1.50;;;25.20;39.70;;;;;;5004722;28;20225;-42
2021/07/01 11:20:30;;;;;;;2.40;1.30;;;25.20;39.60;;;;;;5006107;28;20203;-43
2021/07/01 11:22:58;;;;;;;1.60;1.50;;;25.20;39.70;;;;;;5004748;28;20200;-44
2021/07/01 11:25:24;;;;;;;1.58;1.27;;;25.20;39.70;;;;;;5000641;28;20548;-45
2021/07/01 11:27:51;;;;;;;1.75;1.38;;;25.20;39.70;;;;;;5007804;28;20313;-42
2021/07/01 11:30:18;;;;;;;2.10;1.20;;;25.20;39.70;;;;;;5010418;28;20573;-44
2021/07/01 11:32:44;;;;;;;1.83;1.40;;;25.20;39.80;;;;;;5009416;28;20313;-45
2021/07/01 11:35:10;;;;;;;1.40;1.30;;;25.20;39.80;;;;;;5009137;28;20205;-43
2021/07/01 11:37:37;;;;;;;1.10;1.10;;;25.20;39.80;;;;;;5001053;28;20310;-46
2021/07/01 11:40:03;;;;;;;1.88;1.20;;;25.20;40.00;;;;;;5013530;28;20211;-49
2021/07/01 11:42:30;;;;;;;1.63;1.20;;;25.20;40.00;;;;;;5004217;28;20738;-44
2021/07/01 11:44:57;;;;;;;1.60;1.50;;;25.20;39.90;;;;;;5011612;28;20199;-47
2021/07/01 11:47:24;;;;;;;1.27;1.17;;;25.20;39.80;;;;;;5004173;28;20227;-47
2021/07/01 11:49:50;;;;;;;1.52;1.38;;;25.20;39.80;;;;;;5000070;28;20290;-46
2021/07/01 11:52:17;;;;;;;2.60;1.30;;;25.20;39.80;;;;;;5013957;28;20234;-47
2021/07/01 11:54:43;;;;;;;1.77;1.50;;;25.20;39.90;;;;;;5010259;28;20199;-45
2021/07/01 11:57:09;;;;;;;1.70;1.50;;;25.20;40.00;;;;;;5012238;28;20222;-48
2021/07/01 11:59:36;;;;;;;1.52;1.42;;;25.20;40.00;;;;;;5014154;28;20196;-46
2021/07/01 12:02:02;;;;;;;2.03;1.23;;;25.20;40.00;;;;;;5012988;28;20233;-42
2021/07/01 12:04:29;;;;;;;1.30;1.20;;;25.20;40.10;;;;;;5006714;28;20205;-44
2021/07/01 12:06:56;;;;;;;1.40;1.25;;;25.20;40.10;;;;;;5007687;28;20301;-48
2021/07/01 12:09:22;;;;;;;1.98;1.58;;;25.20;40.00;;;;;;5012596;28;20222;-47
2021/07/01 12:11:49;;;;;;;1.40;1.30;;;25.20;40.00;;;;;;5011149;28;20727;-46
2021/07/01 12:14:15;;;;;;;2.65;1.40;;;25.20;40.00;;;;;;5013339;28;20588;-42
2021/07/01 12:16:41;;;;;;;2.15;1.48;;;25.20;40.00;;;;;;5013182;28;20241;-46
2021/07/01 12:19:08;;;;;;;1.13;1.10;;;25.20;40.00;;;;;;5012947;28;20207;-47
2021/07/01 12:21:34;;;;;;;1.40;1.30;;;25.20;40.10;;;;;;5012634;28;20211;-48
2021/07/01 12:24:01;;;;;;;2.13;1.52;;;25.20;40.20;;;;;;5012713;28;20245;-47
2021/07/01 12:26:27;;;;;;;1.63;1.48;;;25.20;40.20;;;;;;5011362;28;20226;-45
2021/07/01 12:28:54;;;;;;;1.85;1.33;;;25.20;40.20;;;;;;5011148;28;20199;-44
2021/07/01 12:31:20;;;;;;;2.22;1.27;;;25.20;40.30;;;;;;5012827;28;20566;-43
2021/07/01 12:33:47;;;;;;;2.03;1.70;;;25.20;40.40;;;;;;5012363;28;20206;-48
2021/07/01 12:36:13;;;;;;;1.50;1.40;;;25.20;40.40;;;;;;5004299;28;20311;-47
2021/07/01 12:38:40;;;;;;;1.50;1.40;;;25.20;40.50;;;;;;4994431;28;20729;-45
2021/07/01 12:41:06;;;;;;;1.48;1.33;;;25.20;40.50;;;;;;5000390;28;20568;-44
2021/07/01 12:43:33;;;;;;;2.53;1.77;;;25.20;40.60;;;;;;5012468;28;20198;-44